Lincoln, KS (67455)

12:07 AM CST on February 10, 2016 (GMT -0600)
Rural Lincoln County | | Change Station
CLOSE
Current Station
Personal Weather Station
Location: Lincoln, KS
Elevation: 1631 ft
Nearby Weather Stations

Elev 1631 ft 38.94 °N, 98.27 °W | Updated 8 seconds ago

Partly Cloudy
Partly Cloudy
29.1 °F
Feels Like 23 °F
N
5.8
Wind Variable Wind from SSW
Gusts 7.4 mph

Today
High -- | Low -- °F
--% Chance of Precip.
Yesterday
High -- | Low -- °F
Precip. -- in
Pressure 30.29 in
Visibility 10.0 miles
Clouds Scattered Clouds 9000 ft
Windchill 23 °F
Dew Point 18 °F
Humidity 64%
Rainfall 0.00 in
Snow Depth Not available.
7:30 AM 6:03 PM
Waxing Crescent, 4% visible
METAR KSLN 100553Z 18005KT 10SM SCT090 M06/M10 A3025 RMK AO2 SLP257 T10561100 11006 21061 400441061 56019
Pressure 30.29 in
Visibility 10.0 miles
Clouds Scattered Clouds 9000 ft
Windchill 23 °F
Dew Point 18 °F
Humidity 64%
Rainfall 0.00 in
Snow Depth Not available.
7:30 AM 6:03 PM
Waxing Crescent, 4% visible
METAR KSLN 100553Z 18005KT 10SM SCT090 M06/M10 A3025 RMK AO2 SLP257 T10561100 11006 21061 400441061 56019

10-Day Weather Forecast

Almanac

Astronomy

Feb. 10, 2016 Rise Set
Actual Time
Civil Twilight
Nautical Twilight
Astronomical Twilight
Moon
Length of Visible Light
Length of Day
Tomorrow will be .
, % of the Moon is Illuminated

Today's Extremes

State Highs State Lows

Community

WunderPhotos

Upload Photos

1,891,824 photos uploaded!

WunderBlog® & News

Nearby

Air Quality

  Air Quality AQ Index Pollutant
Not available.

Snow Depth

Station Depth Elevation

Earthquake Activity

City Distance Mag. Time & Date
Minimum magnitude displayed is 2.5.

Coastal Water Temperatures

Place Temperature

Stations

Nearby Weather Stations

Station Location Temp. Windchill Dew Point Humidity Wind Precip. Elev Updated Type
                   

Watches & Warnings

There are currently no watches in effect.